createdAt,value
2017-07-23T00:00:57.202Z,20.13
2017-07-23T00:03:24.649Z,20.10
2017-07-23T00:05:52.129Z,19.95
2017-07-23T00:08:19.579Z,19.83
2017-07-23T00:10:47.035Z,20.06
2017-07-23T00:13:14.509Z,20.07
2017-07-23T00:15:41.954Z,20.07
2017-07-23T00:18:09.439Z,19.92
2017-07-23T00:20:36.888Z,20.15
2017-07-23T00:23:04.369Z,20.26
2017-07-23T00:25:31.834Z,20.36
2017-07-23T00:27:59.286Z,20.28
2017-07-23T00:30:26.953Z,20.41
2017-07-23T00:32:54.404Z,20.46
2017-07-23T00:35:21.851Z,20.45
2017-07-23T00:37:49.342Z,20.43
2017-07-23T00:40:16.802Z,20.44
2017-07-23T00:42:44.260Z,20.34
2017-07-23T00:45:11.728Z,20.10
2017-07-23T00:47:39.224Z,20.22
2017-07-23T00:50:06.694Z,20.32
2017-07-23T00:52:34.139Z,20.26
2017-07-23T00:55:01.622Z,20.34
2017-07-23T00:57:29.069Z,20.29
2017-07-23T00:59:56.529Z,20.45
2017-07-23T01:02:24.021Z,20.27
2017-07-23T01:04:51.473Z,20.25
2017-07-23T01:07:18.934Z,20.32
2017-07-23T01:09:46.407Z,20.31
2017-07-23T01:12:13.856Z,20.25
2017-07-23T01:14:41.350Z,20.30
2017-07-23T01:17:08.807Z,20.37
2017-07-23T01:19:36.253Z,20.57
2017-07-23T01:22:03.729Z,20.49
2017-07-23T01:24:31.429Z,20.42
2017-07-23T01:26:58.900Z,20.31
2017-07-23T01:29:26.353Z,20.08
2017-07-23T01:31:53.809Z,19.91
2017-07-23T01:34:21.304Z,19.99
2017-07-23T01:36:48.785Z,19.92
2017-07-23T01:39:16.267Z,19.87
2017-07-23T01:41:43.721Z,19.90
2017-07-23T01:44:11.169Z,20.03
2017-07-23T01:46:38.641Z,20.01
2017-07-23T01:49:06.109Z,20.03
2017-07-23T01:51:33.610Z,20.17
2017-07-23T01:54:01.067Z,20.32
2017-07-23T01:56:28.525Z,20.34
2017-07-23T01:58:56.002Z,20.30
2017-07-23T02:01:23.456Z,20.35
2017-07-23T02:03:50.929Z,20.37
2017-07-23T02:06:18.381Z,20.17
2017-07-23T02:08:45.861Z,20.28
2017-07-23T02:11:13.303Z,20.43
2017-07-23T02:13:40.745Z,20.34
2017-07-23T02:16:08.249Z,20.46
2017-07-23T02:18:35.701Z,20.31
2017-07-23T02:21:03.157Z,20.05
2017-07-23T02:23:31.029Z,20.12
2017-07-23T02:25:58.472Z,20.18
2017-07-23T02:28:25.929Z,20.00
2017-07-23T02:30:53.401Z,20.05
2017-07-23T02:33:20.846Z,20.19
2017-07-23T02:35:48.321Z,20.27
2017-07-23T02:38:15.805Z,20.09
2017-07-23T02:40:43.257Z,20.15
2017-07-23T02:43:10.835Z,20.23
2017-07-23T02:45:38.285Z,20.12
2017-07-23T02:48:05.749Z,20.18
2017-07-23T02:50:33.246Z,20.23
2017-07-23T02:53:00.708Z,20.14
2017-07-23T02:55:28.189Z,20.09
2017-07-23T02:57:55.638Z,20.02
2017-07-23T03:00:23.129Z,20.11
2017-07-23T03:02:50.585Z,20.00
2017-07-23T03:05:18.033Z,20.11
2017-07-23T03:07:45.501Z,20.18
2017-07-23T03:10:12.953Z,20.16
2017-07-23T03:12:40.428Z,20.15
2017-07-23T03:15:07.880Z,20.23
2017-07-23T03:17:35.352Z,20.38
2017-07-23T03:20:02.809Z,20.38
2017-07-23T03:22:30.280Z,20.39
2017-07-23T03:24:57.730Z,20.51
2017-07-23T03:27:25.203Z,20.43
2017-07-23T03:29:52.677Z,20.53
2017-07-23T03:32:20.130Z,20.50
2017-07-23T03:34:47.994Z,20.29
2017-07-23T03:37:15.729Z,19.85
2017-07-23T03:39:43.303Z,19.45
2017-07-23T03:42:10.771Z,18.81
2017-07-23T03:44:38.232Z,18.76
2017-07-23T03:47:05.717Z,18.80
2017-07-23T03:49:33.168Z,18.84
2017-07-23T03:52:00.622Z,18.71
2017-07-23T03:54:28.094Z,18.67
2017-07-23T03:56:55.570Z,18.67
2017-07-23T03:59:23.069Z,18.82
2017-07-23T04:01:50.538Z,18.84
2017-07-23T04:04:17.984Z,18.88
2017-07-23T04:06:45.452Z,18.91
2017-07-23T04:09:12.930Z,18.91
2017-07-23T04:11:40.385Z,18.92
2017-07-23T04:14:07.857Z,18.95
2017-07-23T04:16:35.313Z,18.97
2017-07-23T04:19:02.820Z,19.06
2017-07-23T04:21:30.285Z,19.14
2017-07-23T04:23:57.745Z,19.25
2017-07-23T04:26:25.216Z,19.41
2017-07-23T04:28:52.665Z,19.49
2017-07-23T04:31:20.488Z,19.50
2017-07-23T04:33:47.942Z,19.55
2017-07-23T04:36:15.401Z,19.51
2017-07-23T04:38:42.873Z,19.59
2017-07-23T04:41:10.325Z,19.56
2017-07-23T04:43:37.817Z,19.53
2017-07-23T04:46:05.279Z,19.53
2017-07-23T04:48:32.769Z,19.51
2017-07-23T04:51:00.228Z,19.53
2017-07-23T04:53:27.690Z,19.49
2017-07-23T04:55:55.187Z,19.42
2017-07-23T04:58:22.633Z,19.19
2017-07-23T05:00:50.100Z,19.06
2017-07-23T05:03:17.550Z,18.99
2017-07-23T05:05:45.041Z,18.87
2017-07-23T05:08:12.492Z,18.82
2017-07-23T05:10:39.949Z,18.42
2017-07-23T05:13:07.421Z,18.21
2017-07-23T05:15:34.893Z,18.23
2017-07-23T05:18:02.384Z,18.23
2017-07-23T05:20:29.837Z,18.17
2017-07-23T05:22:57.324Z,18.18
2017-07-23T05:25:24.777Z,18.16
2017-07-23T05:27:52.228Z,18.18
2017-07-23T05:30:19.714Z,18.11
2017-07-23T05:32:47.160Z,18.08
2017-07-23T05:35:14.630Z,17.83
2017-07-23T05:37:42.104Z,17.81
2017-07-23T05:40:09.603Z,17.81
2017-07-23T05:42:37.066Z,17.89
2017-07-23T05:45:04.517Z,17.91
2017-07-23T05:47:32.010Z,17.94
2017-07-23T05:49:59.514Z,18.05
2017-07-23T05:52:26.982Z,18.15
2017-07-23T05:54:54.450Z,18.24
2017-07-23T05:57:21.921Z,18.42
2017-07-23T05:59:49.453Z,18.68
2017-07-23T06:02:16.910Z,18.86
2017-07-23T06:04:44.403Z,18.97
2017-07-23T06:07:11.890Z,19.02
2017-07-23T06:09:39.353Z,19.40
2017-07-23T06:12:06.848Z,19.42
2017-07-23T06:14:34.320Z,19.49
2017-07-23T06:17:01.772Z,19.65
2017-07-23T06:19:29.264Z,19.75
2017-07-23T06:21:56.715Z,19.71
2017-07-23T06:24:24.212Z,19.67
2017-07-23T06:26:51.680Z,19.64
2017-07-23T06:29:19.134Z,19.68
2017-07-23T06:31:46.613Z,19.63
2017-07-23T06:34:14.069Z,19.53
2017-07-23T06:36:41.547Z,19.62
2017-07-23T06:39:09.040Z,19.70
2017-07-23T06:41:36.524Z,19.72
2017-07-23T06:44:03.986Z,19.61
2017-07-23T06:46:31.478Z,19.71
2017-07-23T06:48:58.938Z,19.77
2017-07-23T06:51:26.391Z,19.78
2017-07-23T06:53:53.878Z,19.81
2017-07-23T06:56:21.353Z,19.95
2017-07-23T06:58:48.832Z,20.14
2017-07-23T07:01:16.289Z,20.23
2017-07-23T07:03:43.767Z,20.13
2017-07-23T07:06:11.226Z,20.33
2017-07-23T07:08:38.723Z,20.35
2017-07-23T07:11:06.177Z,20.36
2017-07-23T07:13:33.638Z,20.44
2017-07-23T07:16:01.112Z,20.72
2017-07-23T07:18:28.994Z,20.66
2017-07-23T07:20:56.444Z,20.85
2017-07-23T07:23:23.899Z,20.86
2017-07-23T07:25:51.365Z,21.04
2017-07-23T07:28:19.401Z,21.29
2017-07-23T07:30:46.850Z,21.24
2017-07-23T07:33:14.337Z,21.51
2017-07-23T07:35:41.815Z,22.06
2017-07-23T07:38:09.580Z,21.94
2017-07-23T07:40:37.026Z,21.82
2017-07-23T07:43:04.473Z,21.68
2017-07-23T07:45:31.936Z,21.47
2017-07-23T07:47:59.387Z,21.13
2017-07-23T07:50:26.878Z,21.38
2017-07-23T07:52:54.325Z,21.38
2017-07-23T07:55:21.774Z,21.69
2017-07-23T07:57:49.248Z,21.81
2017-07-23T08:00:16.688Z,21.89
2017-07-23T08:02:44.184Z,21.63
2017-07-23T08:05:11.638Z,21.86
2017-07-23T08:07:39.160Z,22.01
2017-07-23T08:10:06.633Z,22.28
2017-07-23T08:12:34.087Z,22.15
2017-07-23T08:15:01.793Z,21.72
2017-07-23T08:17:29.242Z,21.90
2017-07-23T08:19:56.703Z,21.94
2017-07-23T08:22:24.536Z,22.11
2017-07-23T08:24:51.993Z,22.28
2017-07-23T08:27:19.443Z,22.07
2017-07-23T08:29:46.918Z,21.95
2017-07-23T08:32:14.391Z,22.40
2017-07-23T08:34:41.871Z,22.20
2017-07-23T08:37:09.316Z,22.37
2017-07-23T08:39:36.764Z,22.56
2017-07-23T08:42:04.468Z,22.97
2017-07-23T08:44:31.918Z,23.00
2017-07-23T08:46:59.365Z,22.52
2017-07-23T08:49:27.721Z,22.68
2017-07-23T08:51:55.179Z,22.72
2017-07-23T08:54:22.634Z,22.96
2017-07-23T08:56:50.453Z,23.06
2017-07-23T08:59:17.901Z,23.18
2017-07-23T09:01:45.346Z,23.21
2017-07-23T09:04:12.824Z,23.11
2017-07-23T09:06:40.290Z,23.09
2017-07-23T09:09:07.937Z,22.87
2017-07-23T09:11:35.381Z,23.04
2017-07-23T09:14:02.837Z,23.02
2017-07-23T09:16:30.318Z,23.15
2017-07-23T09:18:57.762Z,23.58
2017-07-23T09:21:25.793Z,23.88
2017-07-23T09:23:53.396Z,23.40
2017-07-23T09:26:20.857Z,23.67
2017-07-23T09:28:48.298Z,23.65
2017-07-23T09:31:15.774Z,23.71
2017-07-23T09:33:43.240Z,24.49
2017-07-23T09:36:10.727Z,24.52
2017-07-23T09:38:38.174Z,25.06
2017-07-23T09:41:05.612Z,24.92
2017-07-23T09:43:33.072Z,24.70
2017-07-23T09:46:00.522Z,23.86
2017-07-23T09:48:28.003Z,24.41
2017-07-23T09:50:55.454Z,24.63
2017-07-23T09:53:22.906Z,25.19
2017-07-23T09:55:50.361Z,25.42
2017-07-23T09:58:17.814Z,25.00
2017-07-23T10:00:45.296Z,25.56
2017-07-23T10:03:12.747Z,25.70
2017-07-23T10:05:40.190Z,25.92
2017-07-23T10:08:07.664Z,25.04
2017-07-23T10:10:35.135Z,25.44
2017-07-23T10:13:02.581Z,25.28
2017-07-23T10:15:30.049Z,25.24
2017-07-23T10:17:57.865Z,25.95
2017-07-23T10:20:25.314Z,25.99
2017-07-23T10:22:52.761Z,25.39
2017-07-23T10:25:20.225Z,26.46
2017-07-23T10:27:47.673Z,26.78
2017-07-23T10:30:15.157Z,25.78
2017-07-23T10:32:42.601Z,25.81
2017-07-23T10:35:10.048Z,25.70
2017-07-23T10:37:37.525Z,26.85
2017-07-23T10:40:04.999Z,26.71
2017-07-23T10:42:32.447Z,26.91
2017-07-23T10:44:59.933Z,26.41
2017-07-23T10:47:27.393Z,26.47
2017-07-23T10:49:54.838Z,26.34
2017-07-23T10:52:22.305Z,26.18
2017-07-23T10:54:49.768Z,27.15
2017-07-23T10:57:17.234Z,25.86
2017-07-23T10:59:44.680Z,26.62
2017-07-23T11:02:12.139Z,26.48
2017-07-23T11:04:39.608Z,26.39
2017-07-23T11:07:07.065Z,26.39
2017-07-23T11:09:34.528Z,26.50
2017-07-23T11:12:01.972Z,26.26
2017-07-23T11:14:29.446Z,26.63
2017-07-23T11:16:56.888Z,26.33
2017-07-23T11:19:24.356Z,26.39
2017-07-23T11:21:51.798Z,26.57
2017-07-23T11:24:19.279Z,26.83
2017-07-23T11:26:46.722Z,26.98
2017-07-23T11:29:14.177Z,27.03
2017-07-23T11:31:41.641Z,26.50
2017-07-23T11:34:09.105Z,26.97
2017-07-23T11:36:36.571Z,27.66
2017-07-23T11:39:04.031Z,27.29
2017-07-23T11:41:31.493Z,27.65
2017-07-23T11:43:58.942Z,28.33
2017-07-23T11:46:26.401Z,28.10
2017-07-23T11:48:53.889Z,28.14
2017-07-23T11:51:21.348Z,27.33
2017-07-23T11:53:48.792Z,27.94
2017-07-23T11:56:16.266Z,29.55
2017-07-23T11:58:43.721Z,29.09
2017-07-23T12:01:11.170Z,28.92
2017-07-23T12:03:38.653Z,28.12
2017-07-23T12:06:06.104Z,29.08
2017-07-23T12:08:33.544Z,29.49
2017-07-23T12:11:01.022Z,29.80
2017-07-23T12:13:28.461Z,29.51
2017-07-23T12:15:55.905Z,28.93
2017-07-23T12:18:23.400Z,30.35
2017-07-23T12:20:50.842Z,30.89
2017-07-23T12:23:18.287Z,30.50
2017-07-23T12:25:45.780Z,30.45
2017-07-23T12:28:13.305Z,31.33
2017-07-23T12:30:40.772Z,31.33
2017-07-23T12:33:08.248Z,31.04
2017-07-23T12:35:35.697Z,31.94
2017-07-23T12:38:03.157Z,32.72
2017-07-23T12:40:30.616Z,31.72
2017-07-23T12:42:58.065Z,32.22
2017-07-23T12:45:25.769Z,33.02
2017-07-23T12:47:53.278Z,31.52
2017-07-23T12:50:20.737Z,33.71
2017-07-23T12:52:48.204Z,33.00
2017-07-23T12:55:15.669Z,33.25
2017-07-23T12:57:43.149Z,33.44
2017-07-23T13:00:10.594Z,31.14
2017-07-23T13:02:38.064Z,32.63
2017-07-23T13:05:05.513Z,31.72
2017-07-23T13:07:32.993Z,31.99
2017-07-23T13:10:00.457Z,28.47
2017-07-23T13:12:27.944Z,30.17
2017-07-23T13:14:55.415Z,29.36
2017-07-23T13:17:22.869Z,30.57
2017-07-23T13:19:50.516Z,30.82
2017-07-23T13:22:17.957Z,31.53
2017-07-23T13:24:45.421Z,31.42
2017-07-23T13:27:12.890Z,30.88
2017-07-23T13:29:40.344Z,29.05
2017-07-23T13:32:07.865Z,29.49
2017-07-23T13:34:35.313Z,29.40
2017-07-23T13:37:02.761Z,30.30
2017-07-23T13:39:30.243Z,30.69
2017-07-23T13:41:57.694Z,31.28
2017-07-23T13:44:25.143Z,31.72
2017-07-23T13:46:52.624Z,31.62
2017-07-23T13:49:20.083Z,31.09
2017-07-23T13:51:47.545Z,32.63
2017-07-23T13:54:15.033Z,29.39
2017-07-23T13:56:42.473Z,31.19
2017-07-23T13:59:09.918Z,30.86
2017-07-23T14:01:37.398Z,31.61
2017-07-23T14:04:04.880Z,31.15
2017-07-23T14:06:32.562Z,31.05
2017-07-23T14:09:00.005Z,29.73
2017-07-23T14:11:27.467Z,29.51
2017-07-23T14:13:54.996Z,29.66
2017-07-23T14:16:22.474Z,31.06
2017-07-23T14:18:49.946Z,30.28
2017-07-23T14:21:17.412Z,31.86
2017-07-23T14:23:44.882Z,31.74
2017-07-23T14:26:12.325Z,31.02
2017-07-23T14:28:39.817Z,29.66
2017-07-23T14:31:07.272Z,30.88
2017-07-23T14:33:34.729Z,30.95
2017-07-23T14:36:02.234Z,29.76
2017-07-23T14:38:29.697Z,29.15
2017-07-23T14:40:57.312Z,30.21
2017-07-23T14:43:24.761Z,30.50
2017-07-23T14:45:52.206Z,30.96
2017-07-23T14:48:19.673Z,29.87
2017-07-23T14:50:47.154Z,31.62
2017-07-23T14:53:14.593Z,31.50
2017-07-23T14:55:42.063Z,33.06
2017-07-23T14:58:09.534Z,31.58
2017-07-23T15:00:37.026Z,29.55
2017-07-23T15:03:04.491Z,30.58
2017-07-23T15:05:31.998Z,31.98
2017-07-23T15:07:59.444Z,32.30
2017-07-23T15:10:26.925Z,29.63
2017-07-23T15:12:54.370Z,32.12
2017-07-23T15:15:21.839Z,31.44
2017-07-23T15:17:49.306Z,32.35
2017-07-23T15:20:16.753Z,32.87
2017-07-23T15:22:44.324Z,32.95
2017-07-23T15:25:11.769Z,33.05
2017-07-23T15:27:39.217Z,34.74
2017-07-23T15:30:06.708Z,33.30
2017-07-23T15:32:34.165Z,31.49
2017-07-23T15:35:01.605Z,30.57
2017-07-23T15:37:29.086Z,31.35
2017-07-23T15:39:56.530Z,32.61
2017-07-23T15:42:23.972Z,30.84
2017-07-23T15:44:51.453Z,29.47
2017-07-23T15:47:18.895Z,30.32
2017-07-23T15:49:46.345Z,29.29
2017-07-23T15:52:13.821Z,29.89
2017-07-23T15:54:41.308Z,31.61
2017-07-23T15:57:08.757Z,29.69
2017-07-23T15:59:36.206Z,31.95
2017-07-23T16:02:03.668Z,32.08
2017-07-23T16:04:31.132Z,32.86
2017-07-23T16:06:58.602Z,30.95
2017-07-23T16:09:26.050Z,29.68
2017-07-23T16:11:53.762Z,29.86
2017-07-23T16:14:21.210Z,30.36
2017-07-23T16:16:48.660Z,29.88
2017-07-23T16:19:16.148Z,30.20
2017-07-23T16:21:43.597Z,28.22
2017-07-23T16:24:11.071Z,28.37
2017-07-23T16:26:38.517Z,29.25
2017-07-23T16:29:06.157Z,28.21
2017-07-23T16:31:33.617Z,27.80
2017-07-23T16:34:01.053Z,27.90
2017-07-23T16:36:28.528Z,28.32
2017-07-23T16:38:56.009Z,27.76
2017-07-23T16:41:23.457Z,27.19
2017-07-23T16:43:50.926Z,27.12
2017-07-23T16:46:18.377Z,27.78
2017-07-23T16:48:45.850Z,27.61
2017-07-23T16:51:13.362Z,27.58
2017-07-23T16:53:40.813Z,27.04
2017-07-23T16:56:08.298Z,26.76
2017-07-23T16:58:35.741Z,26.81
2017-07-23T17:01:03.188Z,26.37
2017-07-23T17:03:30.654Z,26.42
2017-07-23T17:05:58.124Z,26.58
2017-07-23T17:08:25.568Z,26.69
2017-07-23T17:10:53.057Z,26.67
2017-07-23T17:13:20.512Z,26.61
2017-07-23T17:15:47.953Z,26.63
2017-07-23T17:18:15.415Z,26.60
2017-07-23T17:20:42.866Z,26.31
2017-07-23T17:23:10.369Z,26.30
2017-07-23T17:25:37.821Z,26.37
2017-07-23T17:28:05.264Z,26.52
2017-07-23T17:30:32.745Z,26.96
2017-07-23T17:33:00.210Z,27.44
2017-07-23T17:35:27.679Z,27.82
2017-07-23T17:37:55.127Z,27.00
2017-07-23T17:40:22.572Z,26.88
2017-07-23T17:42:50.060Z,26.32
2017-07-23T17:45:17.512Z,26.63
2017-07-23T17:47:44.985Z,26.27
2017-07-23T17:50:12.434Z,26.28
2017-07-23T17:52:39.898Z,25.84
2017-07-23T17:55:07.368Z,26.05
2017-07-23T17:57:34.849Z,25.82
2017-07-23T18:00:02.337Z,26.02
2017-07-23T18:02:29.789Z,25.89
2017-07-23T18:04:58.202Z,25.68
2017-07-23T18:07:25.654Z,25.67
2017-07-23T18:09:53.117Z,25.65
2017-07-23T18:12:20.580Z,25.46
2017-07-23T18:14:48.022Z,25.48
2017-07-23T18:17:15.596Z,25.34
2017-07-23T18:19:43.048Z,25.05
2017-07-23T18:22:10.494Z,24.47
2017-07-23T18:24:37.966Z,23.98
2017-07-23T18:27:05.429Z,22.38
2017-07-23T18:29:32.915Z,21.77
2017-07-23T18:32:00.369Z,21.24
2017-07-23T18:34:27.822Z,21.25
2017-07-23T18:36:55.292Z,21.23
2017-07-23T18:39:22.779Z,21.08
2017-07-23T18:41:50.253Z,20.81
2017-07-23T18:44:17.701Z,20.64
2017-07-23T18:46:45.171Z,21.02
2017-07-23T18:49:12.618Z,20.78
2017-07-23T18:51:40.105Z,21.19
2017-07-23T18:54:07.547Z,21.01
2017-07-23T18:56:34.996Z,20.95
2017-07-23T18:59:02.494Z,21.00
2017-07-23T19:01:29.947Z,21.18
2017-07-23T19:03:57.414Z,21.19
2017-07-23T19:06:24.876Z,21.10
2017-07-23T19:08:52.331Z,20.94
2017-07-23T19:11:19.820Z,21.01
2017-07-23T19:13:47.269Z,21.03
2017-07-23T19:16:14.718Z,20.96
2017-07-23T19:18:42.185Z,20.99
2017-07-23T19:21:09.637Z,21.01
2017-07-23T19:23:37.108Z,20.86
2017-07-23T19:26:04.549Z,20.99
2017-07-23T19:28:32.298Z,20.90
2017-07-23T19:30:59.753Z,20.91
2017-07-23T19:33:27.217Z,20.91
2017-07-23T19:35:54.697Z,20.99
2017-07-23T19:38:22.161Z,21.02
2017-07-23T19:40:49.601Z,21.14
2017-07-23T19:43:17.076Z,21.07
2017-07-23T19:45:44.561Z,21.07
2017-07-23T19:48:11.997Z,21.06
2017-07-23T19:50:39.496Z,21.04
2017-07-23T19:53:06.949Z,21.07
2017-07-23T19:55:34.393Z,21.06
2017-07-23T19:58:01.875Z,21.07
2017-07-23T20:00:29.329Z,21.05
2017-07-23T20:02:56.817Z,21.03
2017-07-23T20:05:24.285Z,21.03
2017-07-23T20:07:51.742Z,21.03
2017-07-23T20:10:19.224Z,21.02
2017-07-23T20:12:46.700Z,20.98
2017-07-23T20:15:14.152Z,20.99
2017-07-23T20:17:41.615Z,20.92
2017-07-23T20:20:09.082Z,20.95
2017-07-23T20:22:36.550Z,20.94
2017-07-23T20:25:03.998Z,20.94
2017-07-23T20:27:31.487Z,20.87
2017-07-23T20:29:58.934Z,20.85
2017-07-23T20:32:27.354Z,20.87
2017-07-23T20:34:54.837Z,20.82
2017-07-23T20:37:22.332Z,20.83
2017-07-23T20:39:49.803Z,20.82
2017-07-23T20:42:17.269Z,20.79
2017-07-23T20:44:44.718Z,20.72
2017-07-23T20:47:12.222Z,20.67
2017-07-23T20:49:39.676Z,20.75
2017-07-23T20:52:07.135Z,20.77
2017-07-23T20:54:34.625Z,20.71
2017-07-23T20:57:02.089Z,20.79
2017-07-23T20:59:29.542Z,20.77
2017-07-23T21:01:57.025Z,20.77
2017-07-23T21:04:24.497Z,20.59
2017-07-23T21:06:51.956Z,20.54
2017-07-23T21:09:19.457Z,20.49
2017-07-23T21:11:46.906Z,20.50
2017-07-23T21:14:14.397Z,20.46
2017-07-23T21:16:41.853Z,20.45
2017-07-23T21:19:09.330Z,20.44
2017-07-23T21:21:36.782Z,20.37
2017-07-23T21:24:04.266Z,20.39
2017-07-23T21:26:31.731Z,20.36
2017-07-23T21:28:59.190Z,20.29
2017-07-23T21:31:26.665Z,20.37
2017-07-23T21:33:54.118Z,20.41
2017-07-23T21:36:21.592Z,20.43
2017-07-23T21:38:49.055Z,20.50
2017-07-23T21:41:16.544Z,20.46
2017-07-23T21:43:44.024Z,20.43
2017-07-23T21:46:11.477Z,20.34
2017-07-23T21:48:38.930Z,20.49
2017-07-23T21:51:06.407Z,20.31
2017-07-23T21:53:33.860Z,20.34
2017-07-23T21:56:01.703Z,20.37
2017-07-23T21:58:29.154Z,20.36
2017-07-23T22:00:56.606Z,20.26
2017-07-23T22:03:24.081Z,20.25
2017-07-23T22:05:51.529Z,20.36
2017-07-23T22:08:19.014Z,20.34
2017-07-23T22:10:46.478Z,20.34
2017-07-23T22:13:13.936Z,20.31
2017-07-23T22:15:41.413Z,20.31
2017-07-23T22:18:08.861Z,20.33
2017-07-23T22:20:36.333Z,20.22
2017-07-23T22:23:03.812Z,20.14
2017-07-23T22:25:31.260Z,20.11
2017-07-23T22:27:58.745Z,20.01
2017-07-23T22:30:26.202Z,19.63
2017-07-23T22:32:53.681Z,19.48
2017-07-23T22:35:21.138Z,19.18
2017-07-23T22:37:48.585Z,19.18
2017-07-23T22:40:16.062Z,19.07
2017-07-23T22:42:43.756Z,19.02
2017-07-23T22:45:11.211Z,19.00
2017-07-23T22:47:38.657Z,18.92
2017-07-23T22:50:06.442Z,18.91
2017-07-23T22:52:33.898Z,18.82
2017-07-23T22:55:01.358Z,18.76
2017-07-23T22:57:28.829Z,18.64
2017-07-23T22:59:56.297Z,18.59
2017-07-23T23:02:23.792Z,18.50
2017-07-23T23:04:51.249Z,18.41
2017-07-23T23:07:18.710Z,18.35
2017-07-23T23:09:46.180Z,18.42
2017-07-23T23:12:13.656Z,18.35
2017-07-23T23:14:41.146Z,18.25
2017-07-23T23:17:08.604Z,18.22
2017-07-23T23:19:36.060Z,18.19
2017-07-23T23:22:03.529Z,18.34
2017-07-23T23:24:30.989Z,18.24
2017-07-23T23:26:58.456Z,18.28
2017-07-23T23:29:25.912Z,18.18
2017-07-23T23:31:53.394Z,18.16
2017-07-23T23:34:20.850Z,18.17
2017-07-23T23:36:48.326Z,18.20
2017-07-23T23:39:15.777Z,18.28
2017-07-23T23:41:43.249Z,18.10
2017-07-23T23:44:10.758Z,18.22
2017-07-23T23:46:38.216Z,18.23
2017-07-23T23:49:05.669Z,18.30
2017-07-23T23:51:33.136Z,18.22
2017-07-23T23:54:00.599Z,18.21
2017-07-23T23:56:28.081Z,18.29
2017-07-23T23:58:55.549Z,18.22
